createdAt,value
2018-03-27T00:02:04.245Z,150.77
2018-03-27T00:04:31.832Z,145.23
2018-03-27T00:06:59.413Z,139.87
2018-03-27T00:09:27.034Z,135.70
2018-03-27T00:11:54.714Z,142.17
2018-03-27T00:14:22.310Z,129.37
2018-03-27T00:16:49.942Z,127.77
2018-03-27T00:19:17.531Z,125.80
2018-03-27T00:21:45.138Z,132.10
2018-03-27T00:24:12.772Z,115.90
2018-03-27T00:26:52.080Z,118.53
2018-03-27T00:29:31.507Z,119.57
2018-03-27T00:32:10.698Z,145.00
2018-03-27T00:34:49.999Z,133.30
2018-03-27T00:37:29.308Z,111.20
2018-03-27T00:40:08.579Z,119.13
2018-03-27T00:42:43.700Z,125.50
2018-03-27T00:45:11.327Z,117.00
2018-03-27T00:47:38.943Z,109.73
2018-03-27T00:50:06.534Z,121.10
2018-03-27T00:52:34.180Z,117.30
2018-03-27T00:55:01.775Z,118.10
2018-03-27T00:57:29.371Z,133.03
2018-03-27T00:59:57.009Z,125.70
2018-03-27T01:02:24.616Z,123.17
2018-03-27T01:04:52.215Z,138.77
2018-03-27T01:07:19.841Z,114.53
2018-03-27T01:09:47.438Z,128.73
2018-03-27T01:12:15.046Z,138.67
2018-03-27T01:14:42.695Z,135.00
2018-03-27T01:17:10.288Z,116.27
2018-03-27T01:19:37.867Z,116.33
2018-03-27T01:22:05.509Z,116.57
2018-03-27T01:24:33.095Z,109.57
2018-03-27T01:27:00.682Z,105.73
2018-03-27T01:29:28.306Z,95.73
2018-03-27T01:31:55.900Z,98.70
2018-03-27T01:34:23.497Z,102.53
2018-03-27T01:36:51.122Z,109.70
2018-03-27T01:39:18.713Z,116.43
2018-03-27T01:41:46.298Z,104.73
2018-03-27T01:44:13.907Z,98.57
2018-03-27T01:46:41.490Z,95.50
2018-03-27T01:49:09.076Z,122.47
2018-03-27T01:51:36.707Z,98.77
2018-03-27T01:54:04.301Z,97.87
2018-03-27T01:56:31.895Z,114.43
2018-03-27T01:58:59.534Z,94.03
2018-03-27T02:01:27.131Z,100.00
2018-03-27T02:03:54.729Z,110.63
2018-03-27T02:06:22.357Z,103.83
2018-03-27T02:08:49.947Z,90.03
2018-03-27T02:11:22.969Z,98.27
2018-03-27T02:13:56.023Z,101.33
2018-03-27T02:16:29.307Z,91.00
2018-03-27T02:19:02.372Z,87.77
2018-03-27T02:21:29.397Z,86.97
2018-03-27T02:23:59.432Z,96.73
2018-03-27T02:26:27.018Z,98.00
2018-03-27T02:28:54.650Z,109.40
2018-03-27T02:31:22.243Z,102.80
2018-03-27T02:33:49.842Z,109.33
2018-03-27T02:36:17.481Z,106.23
2018-03-27T02:38:45.069Z,85.73
2018-03-27T02:41:12.660Z,88.00
2018-03-27T02:43:40.324Z,90.30
2018-03-27T02:46:07.952Z,96.13
2018-03-27T02:48:35.593Z,90.77
2018-03-27T02:51:03.254Z,86.90
2018-03-27T02:53:30.880Z,85.17
2018-03-27T02:55:58.517Z,93.33
2018-03-27T02:58:26.188Z,92.43
2018-03-27T03:00:53.842Z,74.07
2018-03-27T03:03:21.510Z,83.80
2018-03-27T03:05:49.138Z,93.97
2018-03-27T03:08:16.723Z,80.07
2018-03-27T03:10:44.350Z,79.87
2018-03-27T03:13:11.979Z,91.37
2018-03-27T03:15:39.562Z,98.50
2018-03-27T03:18:07.153Z,91.67
2018-03-27T03:20:34.764Z,90.70
2018-03-27T03:23:02.354Z,97.43
2018-03-27T03:25:29.929Z,86.00
2018-03-27T03:27:57.557Z,90.30
2018-03-27T03:30:25.151Z,107.07
2018-03-27T03:32:52.755Z,97.53
2018-03-27T03:35:20.379Z,99.37
2018-03-27T03:37:47.958Z,96.53
2018-03-27T03:40:15.555Z,95.60
2018-03-27T03:42:43.214Z,87.97
2018-03-27T03:45:10.787Z,101.50
2018-03-27T03:47:38.369Z,80.97
2018-03-27T03:50:05.998Z,100.17
2018-03-27T03:52:33.582Z,89.67
2018-03-27T03:55:01.181Z,94.50
2018-03-27T03:57:28.813Z,84.47
2018-03-27T03:59:56.393Z,92.13
2018-03-27T04:02:23.978Z,95.63
2018-03-27T04:04:51.605Z,88.77
2018-03-27T04:07:19.189Z,95.23
2018-03-27T04:09:46.768Z,88.30
2018-03-27T04:12:14.396Z,97.17
2018-03-27T04:14:41.977Z,88.03
2018-03-27T04:17:09.564Z,103.70
2018-03-27T04:19:37.174Z,98.20
2018-03-27T04:22:04.800Z,93.27
2018-03-27T04:24:32.405Z,99.97
2018-03-27T04:26:59.994Z,109.07
2018-03-27T04:29:27.619Z,104.00
2018-03-27T04:31:55.203Z,104.70
2018-03-27T04:34:22.793Z,88.90
2018-03-27T04:36:50.414Z,103.03
2018-03-27T04:39:18.039Z,105.80
2018-03-27T04:41:45.631Z,101.00
2018-03-27T04:44:13.260Z,104.77
2018-03-27T04:46:40.855Z,101.83
2018-03-27T04:49:08.439Z,94.77
2018-03-27T04:51:36.118Z,85.10
2018-03-27T04:54:03.718Z,112.10
2018-03-27T04:56:31.302Z,99.43
2018-03-27T04:58:58.931Z,90.37
2018-03-27T05:01:26.525Z,93.00
2018-03-27T05:03:54.115Z,94.17
2018-03-27T05:06:21.742Z,80.87
2018-03-27T05:08:49.331Z,92.30
2018-03-27T05:11:16.929Z,106.37
2018-03-27T05:13:44.608Z,96.03
2018-03-27T05:16:12.185Z,87.43
2018-03-27T05:18:39.771Z,90.20
2018-03-27T05:21:07.391Z,91.00
2018-03-27T05:23:34.998Z,79.77
2018-03-27T05:26:02.588Z,91.67
2018-03-27T05:28:30.234Z,97.73
2018-03-27T05:30:57.818Z,112.17
2018-03-27T05:33:25.406Z,97.47
2018-03-27T05:35:53.056Z,96.93
2018-03-27T05:38:20.654Z,97.87
2018-03-27T05:40:48.228Z,81.93
2018-03-27T05:43:15.850Z,90.30
2018-03-27T05:45:43.437Z,99.37
2018-03-27T05:48:11.032Z,89.77
2018-03-27T05:50:38.666Z,102.07
2018-03-27T05:53:06.253Z,96.93
2018-03-27T05:55:33.839Z,89.17
2018-03-27T05:58:01.480Z,106.73
2018-03-27T06:00:29.118Z,118.50
2018-03-27T06:02:56.710Z,108.73
2018-03-27T06:05:24.330Z,97.93
2018-03-27T06:07:51.917Z,100.83
2018-03-27T06:10:19.496Z,109.50
2018-03-27T06:12:47.131Z,107.30
2018-03-27T06:15:14.718Z,121.10
2018-03-27T06:17:42.317Z,108.53
2018-03-27T06:20:09.961Z,105.57
2018-03-27T06:22:37.546Z,107.07
2018-03-27T06:25:05.137Z,93.13
2018-03-27T06:27:32.757Z,80.17
2018-03-27T06:30:00.387Z,87.73
2018-03-27T06:32:27.976Z,73.10
2018-03-27T06:34:55.609Z,70.97
2018-03-27T06:37:23.190Z,80.67
2018-03-27T06:39:50.769Z,74.93
2018-03-27T06:42:18.418Z,83.40
2018-03-27T06:44:46.011Z,78.03
2018-03-27T06:47:13.595Z,75.67
2018-03-27T06:49:41.224Z,80.47
2018-03-27T06:52:08.799Z,66.77
2018-03-27T06:54:36.389Z,70.70
2018-03-27T06:57:04.013Z,71.63
2018-03-27T06:59:31.582Z,77.43
2018-03-27T07:01:59.178Z,81.43
2018-03-27T07:04:26.802Z,81.93
2018-03-27T07:06:54.432Z,110.00
2018-03-27T07:09:22.036Z,108.57
2018-03-27T07:11:49.668Z,76.23
2018-03-27T07:14:17.261Z,61.50
2018-03-27T07:16:44.859Z,79.43
2018-03-27T07:19:12.488Z,60.27
2018-03-27T07:21:40.078Z,64.33
2018-03-27T07:24:07.758Z,69.27
2018-03-27T07:26:35.382Z,60.30
2018-03-27T07:29:02.970Z,57.30
2018-03-27T07:31:30.564Z,51.37
2018-03-27T07:33:58.190Z,68.13
2018-03-27T07:36:25.781Z,54.23
2018-03-27T07:38:53.374Z,55.27
2018-03-27T07:41:21.014Z,54.53
2018-03-27T07:43:48.596Z,61.63
2018-03-27T07:46:16.168Z,58.60
2018-03-27T07:48:43.794Z,51.70
2018-03-27T07:51:11.382Z,63.10
2018-03-27T07:53:38.952Z,65.67
2018-03-27T07:56:06.581Z,55.93
2018-03-27T07:58:34.174Z,58.57
2018-03-27T08:01:01.760Z,47.53
2018-03-27T08:03:29.425Z,50.30
2018-03-27T08:05:57.028Z,61.10
2018-03-27T08:08:24.641Z,52.70
2018-03-27T08:10:52.272Z,55.43
2018-03-27T08:13:19.855Z,54.27
2018-03-27T08:15:47.439Z,48.30
2018-03-27T08:18:15.066Z,41.60
2018-03-27T08:20:42.662Z,37.03
2018-03-27T08:23:10.338Z,38.77
2018-03-27T08:25:38.058Z,46.30
2018-03-27T08:28:05.671Z,46.47
2018-03-27T08:30:33.338Z,41.93
2018-03-27T08:33:00.948Z,31.80
2018-03-27T08:35:28.530Z,34.57
2018-03-27T08:37:56.193Z,40.80
2018-03-27T08:40:23.813Z,52.23
2018-03-27T08:42:51.428Z,44.70
2018-03-27T08:45:19.019Z,45.93
2018-03-27T08:47:46.657Z,61.10
2018-03-27T08:50:14.331Z,49.40
2018-03-27T08:52:41.969Z,54.60
2018-03-27T08:55:09.661Z,71.83
2018-03-27T08:57:37.266Z,52.23
2018-03-27T09:00:04.900Z,35.13
2018-03-27T09:02:32.541Z,32.97
2018-03-27T09:05:00.142Z,42.70
2018-03-27T09:07:27.758Z,44.20
2018-03-27T09:09:55.373Z,28.20
2018-03-27T09:12:22.993Z,35.87
2018-03-27T09:14:50.577Z,47.47
2018-03-27T09:17:18.191Z,49.20
2018-03-27T09:19:45.774Z,43.80
2018-03-27T09:22:13.342Z,43.37
2018-03-27T09:24:40.958Z,40.93
2018-03-27T09:27:08.532Z,29.03
2018-03-27T09:29:36.109Z,33.97
2018-03-27T09:32:03.748Z,38.50
2018-03-27T09:34:31.351Z,38.33
2018-03-27T09:36:58.930Z,32.87
2018-03-27T09:39:26.523Z,34.27
2018-03-27T09:41:54.094Z,27.23
2018-03-27T09:44:21.677Z,31.00
2018-03-27T09:46:49.291Z,33.53
2018-03-27T09:49:16.858Z,26.70
2018-03-27T09:51:44.433Z,39.87
2018-03-27T09:54:12.065Z,52.27
2018-03-27T09:56:39.632Z,48.73
2018-03-27T09:59:07.214Z,42.27
2018-03-27T10:01:39.656Z,52.20
2018-03-27T10:04:07.249Z,45.20
2018-03-27T10:06:34.821Z,43.10
2018-03-27T10:09:02.445Z,58.03
2018-03-27T10:11:30.766Z,50.10
2018-03-27T10:13:58.346Z,79.13
2018-03-27T10:16:25.963Z,39.63
2018-03-27T10:18:53.550Z,45.30
2018-03-27T10:21:21.125Z,33.17
2018-03-27T10:23:48.737Z,48.10
2018-03-27T10:26:16.305Z,41.20
2018-03-27T10:28:44.795Z,37.93
2018-03-27T10:31:12.502Z,43.93
2018-03-27T10:33:40.077Z,35.30
2018-03-27T10:36:07.706Z,27.30
2018-03-27T10:38:36.114Z,37.20
2018-03-27T10:41:03.691Z,42.60
2018-03-27T10:43:31.283Z,35.67
2018-03-27T10:45:58.912Z,33.80
2018-03-27T10:48:26.478Z,32.77
2018-03-27T10:50:54.055Z,47.93
2018-03-27T10:53:21.672Z,36.90
2018-03-27T10:55:49.233Z,34.43
2018-03-27T10:58:16.795Z,37.50
2018-03-27T11:00:44.415Z,29.53
2018-03-27T11:03:11.980Z,29.50
2018-03-27T11:05:39.574Z,37.23
2018-03-27T11:08:07.203Z,38.73
2018-03-27T11:10:34.780Z,42.57
2018-03-27T11:13:02.370Z,36.93
2018-03-27T11:15:30.009Z,41.50
2018-03-27T11:17:57.571Z,33.13
2018-03-27T11:20:25.141Z,31.33
2018-03-27T11:22:52.749Z,31.13
2018-03-27T11:25:20.345Z,27.93
2018-03-27T11:27:47.942Z,20.20
2018-03-27T11:30:15.552Z,16.33
2018-03-27T11:32:43.126Z,13.13
2018-03-27T11:35:10.703Z,16.60
2018-03-27T11:37:38.316Z,16.10
2018-03-27T11:40:05.996Z,19.10
2018-03-27T11:42:33.604Z,14.33
2018-03-27T11:45:01.223Z,18.47
2018-03-27T11:47:28.793Z,18.50
2018-03-27T11:49:56.365Z,19.07
2018-03-27T11:52:23.977Z,15.60
2018-03-27T11:54:51.588Z,12.27
2018-03-27T11:57:19.158Z,12.47
2018-03-27T11:59:46.768Z,16.00
2018-03-27T12:02:14.394Z,12.33
2018-03-27T12:04:41.989Z,16.10
2018-03-27T12:07:09.662Z,31.70
2018-03-27T12:09:37.242Z,16.53
2018-03-27T12:12:04.827Z,21.80
2018-03-27T12:14:32.441Z,38.83
2018-03-27T12:17:00.026Z,17.27
2018-03-27T12:19:27.600Z,23.40
2018-03-27T12:21:55.210Z,18.73
2018-03-27T12:24:22.795Z,27.00
2018-03-27T12:26:50.408Z,28.30
2018-03-27T12:29:18.018Z,22.70
2018-03-27T12:31:45.632Z,26.43
2018-03-27T12:34:13.240Z,30.63
2018-03-27T12:36:40.861Z,15.10
2018-03-27T12:39:08.441Z,21.10
2018-03-27T12:41:36.011Z,16.20
2018-03-27T12:44:03.627Z,21.17
2018-03-27T12:46:31.202Z,19.07
2018-03-27T12:48:58.778Z,10.13
2018-03-27T12:51:26.414Z,9.20
2018-03-27T12:53:53.984Z,13.37
2018-03-27T12:56:21.569Z,12.00
2018-03-27T12:58:49.197Z,11.10
2018-03-27T13:01:16.779Z,13.20
2018-03-27T13:03:44.361Z,16.47
2018-03-27T13:06:11.982Z,19.47
2018-03-27T13:08:39.562Z,17.73
2018-03-27T13:11:07.144Z,38.60
2018-03-27T13:13:34.759Z,26.93
2018-03-27T13:16:02.338Z,17.83
2018-03-27T13:18:29.930Z,19.70
2018-03-27T13:20:57.549Z,22.03
2018-03-27T13:23:25.142Z,24.43
2018-03-27T13:25:52.738Z,28.70
2018-03-27T13:28:20.366Z,23.53
2018-03-27T13:30:47.960Z,19.40
2018-03-27T13:33:15.544Z,17.03
2018-03-27T13:35:43.213Z,18.67
2018-03-27T13:38:10.803Z,22.50
2018-03-27T13:40:38.392Z,22.70
2018-03-27T13:43:06.007Z,34.50
2018-03-27T13:45:33.610Z,24.73
2018-03-27T13:48:01.195Z,22.57
2018-03-27T13:50:28.822Z,49.67
2018-03-27T13:52:56.416Z,57.30
2018-03-27T13:55:24.006Z,54.77
2018-03-27T13:57:51.633Z,68.60
2018-03-27T14:00:19.250Z,201.43
2018-03-27T14:02:46.839Z,88.47
2018-03-27T14:05:14.551Z,108.83
2018-03-27T14:07:42.130Z,51.37
2018-03-27T14:10:09.712Z,51.23
2018-03-27T14:12:37.326Z,45.13
2018-03-27T14:15:04.909Z,53.67
2018-03-27T14:17:32.501Z,56.63
2018-03-27T14:20:00.136Z,48.83
2018-03-27T14:22:27.740Z,57.07
2018-03-27T14:24:55.326Z,42.30
2018-03-27T14:27:22.960Z,64.07
2018-03-27T14:29:50.547Z,78.70
2018-03-27T14:32:18.130Z,59.80
2018-03-27T14:34:45.747Z,62.33
2018-03-27T14:37:13.383Z,76.17
2018-03-27T14:39:40.963Z,57.93
2018-03-27T14:42:08.588Z,64.60
2018-03-27T14:44:36.217Z,45.30
2018-03-27T14:47:03.798Z,56.57
2018-03-27T14:49:31.428Z,58.30
2018-03-27T14:51:59.059Z,56.33
2018-03-27T14:54:26.668Z,77.00
2018-03-27T14:56:54.300Z,82.27
2018-03-27T14:59:21.884Z,63.87
2018-03-27T15:01:49.467Z,66.90
2018-03-27T15:04:17.145Z,60.53
2018-03-27T15:06:44.738Z,61.70
2018-03-27T15:09:12.399Z,61.17
2018-03-27T15:11:40.014Z,60.90
2018-03-27T15:14:07.589Z,65.50
2018-03-27T15:16:35.182Z,59.13
2018-03-27T15:19:02.800Z,55.83
2018-03-27T15:21:30.397Z,59.43
2018-03-27T15:23:57.991Z,70.23
2018-03-27T15:26:25.606Z,71.10
2018-03-27T15:28:53.180Z,78.00
2018-03-27T15:31:20.770Z,84.90
2018-03-27T15:33:48.387Z,70.70
2018-03-27T15:36:15.984Z,74.17
2018-03-27T15:38:43.571Z,71.67
2018-03-27T15:41:11.198Z,78.13
2018-03-27T15:43:38.856Z,66.23
2018-03-27T15:46:06.515Z,94.20
2018-03-27T15:48:34.135Z,84.80
2018-03-27T15:51:01.738Z,34.77
2018-03-27T15:53:29.321Z,35.30
2018-03-27T15:55:56.938Z,54.07
2018-03-27T15:58:24.520Z,44.80
2018-03-27T16:00:52.134Z,40.97
2018-03-27T16:03:19.942Z,40.33
2018-03-27T16:05:47.570Z,47.53
2018-03-27T16:08:15.171Z,45.47
2018-03-27T16:10:42.800Z,67.60
2018-03-27T16:13:10.399Z,75.13
2018-03-27T16:15:37.984Z,69.13
2018-03-27T16:18:05.619Z,134.20
2018-03-27T16:20:33.283Z,63.93
2018-03-27T16:23:00.865Z,47.30
2018-03-27T16:25:28.523Z,91.00
2018-03-27T16:27:56.170Z,69.63
2018-03-27T16:30:23.754Z,61.87
2018-03-27T16:32:51.381Z,49.23
2018-03-27T16:35:18.963Z,55.37
2018-03-27T16:37:46.538Z,51.77
2018-03-27T16:40:14.162Z,51.17
2018-03-27T16:42:41.745Z,56.13
2018-03-27T16:45:09.325Z,70.13
2018-03-27T16:47:36.953Z,93.90
2018-03-27T16:50:04.538Z,113.47
2018-03-27T16:52:32.130Z,97.43
2018-03-27T16:54:59.777Z,106.50
2018-03-27T16:57:27.382Z,103.57
2018-03-27T16:59:54.983Z,66.77
2018-03-27T17:02:22.602Z,56.10
2018-03-27T17:04:50.166Z,107.37
2018-03-27T17:07:20.821Z,72.93
2018-03-27T17:09:48.444Z,95.97
2018-03-27T17:12:16.184Z,61.70
2018-03-27T17:14:43.757Z,58.63
2018-03-27T17:17:11.371Z,119.13
2018-03-27T17:19:38.951Z,116.93
2018-03-27T17:22:06.550Z,130.17
2018-03-27T17:24:34.164Z,120.03
2018-03-27T17:27:01.739Z,108.33
2018-03-27T17:29:29.316Z,111.97
2018-03-27T17:31:56.921Z,109.63
2018-03-27T17:34:24.619Z,113.43
2018-03-27T17:36:52.211Z,104.57
2018-03-27T17:39:19.832Z,86.87
2018-03-27T17:41:47.414Z,80.40
2018-03-27T17:44:15.707Z,72.23
2018-03-27T17:46:43.313Z,63.37
2018-03-27T17:49:10.898Z,79.97
2018-03-27T17:51:38.482Z,85.10
2018-03-27T17:54:06.288Z,105.20
2018-03-27T17:56:33.885Z,123.33
2018-03-27T17:59:01.486Z,140.80
2018-03-27T18:01:29.129Z,136.67
2018-03-27T18:03:56.708Z,98.43
2018-03-27T18:06:24.330Z,105.47
2018-03-27T18:08:51.984Z,94.10
2018-03-27T18:11:19.559Z,116.13
2018-03-27T18:13:47.160Z,100.50
2018-03-27T18:16:14.776Z,99.90
2018-03-27T18:18:42.397Z,123.80
2018-03-27T18:21:09.987Z,105.03
2018-03-27T18:23:37.596Z,69.70
2018-03-27T18:26:05.152Z,72.63
2018-03-27T18:28:32.715Z,58.27
2018-03-27T18:31:00.352Z,59.20
2018-03-27T18:33:27.929Z,58.40
2018-03-27T18:35:55.499Z,61.40
2018-03-27T18:38:23.100Z,86.07
2018-03-27T18:40:50.670Z,62.30
2018-03-27T18:43:18.238Z,69.57
2018-03-27T18:45:45.852Z,53.90
2018-03-27T18:48:13.414Z,79.43
2018-03-27T18:50:41.014Z,102.17
2018-03-27T18:53:08.628Z,69.63
2018-03-27T18:55:36.211Z,105.93
2018-03-27T18:58:03.790Z,70.63
2018-03-27T19:00:31.407Z,74.63
2018-03-27T19:02:59.019Z,68.23
2018-03-27T19:05:26.598Z,91.80
2018-03-27T19:07:54.250Z,75.10
2018-03-27T19:10:21.825Z,87.10
2018-03-27T19:12:49.394Z,78.93
2018-03-27T19:15:17.005Z,75.60
2018-03-27T19:17:44.583Z,195.63
2018-03-27T19:20:12.171Z,72.87
2018-03-27T19:22:39.782Z,64.83
2018-03-27T19:25:07.368Z,66.97
2018-03-27T19:27:34.958Z,74.30
2018-03-27T19:30:02.584Z,68.83
2018-03-27T19:32:30.175Z,56.53
2018-03-27T19:34:57.761Z,62.80
2018-03-27T19:37:25.386Z,74.57
2018-03-27T19:39:52.980Z,88.57
2018-03-27T19:42:20.629Z,86.17
2018-03-27T19:44:48.256Z,99.37
2018-03-27T19:47:15.938Z,100.30
2018-03-27T19:49:43.535Z,116.00
2018-03-27T19:52:11.183Z,181.33
2018-03-27T19:54:38.784Z,102.63
2018-03-27T19:57:06.383Z,100.33
2018-03-27T19:59:34.010Z,89.33
2018-03-27T20:02:01.723Z,82.57
2018-03-27T20:04:29.358Z,76.83
2018-03-27T20:06:56.981Z,84.53
2018-03-27T20:09:24.623Z,90.60
2018-03-27T20:11:52.198Z,74.27
2018-03-27T20:14:19.849Z,74.07
2018-03-27T20:16:47.456Z,67.97
2018-03-27T20:19:15.085Z,62.43
2018-03-27T20:21:42.720Z,127.90
2018-03-27T20:24:10.314Z,101.33
2018-03-27T20:26:37.908Z,103.30
2018-03-27T20:29:05.535Z,71.13
2018-03-27T20:31:33.165Z,98.57
2018-03-27T20:34:00.779Z,138.23
2018-03-27T20:36:28.368Z,123.17
2018-03-27T20:38:56.003Z,128.87
2018-03-27T20:41:23.602Z,118.87
2018-03-27T20:43:51.199Z,117.90
2018-03-27T20:46:18.818Z,110.63
2018-03-27T20:48:46.465Z,193.07
2018-03-27T20:51:14.062Z,166.63
2018-03-27T20:53:41.694Z,518.67
2018-03-27T20:56:09.283Z,233.07
2018-03-27T20:58:36.872Z,468.93
2018-03-27T21:01:04.507Z,512.33
2018-03-27T21:03:32.102Z,406.63
2018-03-27T21:05:59.694Z,493.97
2018-03-27T21:08:27.335Z,475.33
2018-03-27T21:10:54.938Z,602.27
2018-03-27T21:13:22.532Z,488.47
2018-03-27T21:15:50.199Z,251.33
2018-03-27T21:18:17.835Z,262.77
2018-03-27T21:20:45.439Z,507.70
2018-03-27T21:23:13.072Z,826.60
2018-03-27T21:25:40.670Z,558.33
2018-03-27T21:28:08.260Z,531.97
2018-03-27T21:30:35.884Z,520.40
2018-03-27T21:33:03.478Z,352.00
2018-03-27T21:35:31.435Z,350.57
2018-03-27T21:37:59.057Z,491.67
2018-03-27T21:40:26.641Z,343.00
2018-03-27T21:42:54.241Z,438.27
2018-03-27T21:45:21.883Z,485.03
2018-03-27T21:47:49.496Z,322.77
2018-03-27T21:50:17.094Z,323.13
2018-03-27T21:52:44.753Z,547.70
2018-03-27T21:55:12.354Z,243.27
2018-03-27T21:57:39.952Z,510.20
2018-03-27T22:00:09.257Z,647.33
2018-03-27T22:02:36.844Z,517.50
2018-03-27T22:05:04.436Z,541.93
2018-03-27T22:07:32.046Z,546.27
2018-03-27T22:09:59.650Z,547.10
2018-03-27T22:12:27.240Z,435.63
2018-03-27T22:14:54.874Z,319.57
2018-03-27T22:17:22.468Z,473.13
2018-03-27T22:19:50.070Z,422.37
2018-03-27T22:22:17.709Z,238.33
2018-03-27T22:24:45.306Z,217.73
2018-03-27T22:27:12.915Z,257.63
2018-03-27T22:29:40.545Z,256.23
2018-03-27T22:32:08.145Z,444.70
2018-03-27T22:34:35.744Z,419.30
2018-03-27T22:37:03.371Z,433.03
2018-03-27T22:39:30.980Z,720.07
2018-03-27T22:41:58.567Z,366.60
2018-03-27T22:44:26.202Z,409.63
2018-03-27T22:46:53.782Z,406.67
2018-03-27T22:49:21.397Z,439.93
2018-03-27T22:51:49.057Z,482.13
2018-03-27T22:54:16.660Z,608.10
2018-03-27T22:56:44.258Z,600.20
2018-03-27T22:59:11.884Z,553.40
2018-03-27T23:01:39.482Z,769.20
2018-03-27T23:04:07.082Z,769.47
2018-03-27T23:06:34.750Z,410.23
2018-03-27T23:09:02.337Z,300.50
2018-03-27T23:11:29.922Z,510.37
2018-03-27T23:13:57.546Z,260.90
2018-03-27T23:16:25.180Z,440.37
2018-03-27T23:18:52.814Z,591.00
2018-03-27T23:21:20.498Z,691.60
2018-03-27T23:23:48.094Z,269.27
2018-03-27T23:26:15.690Z,545.40
2018-03-27T23:28:43.327Z,580.93
2018-03-27T23:31:10.916Z,356.93
2018-03-27T23:33:38.511Z,265.60
2018-03-27T23:36:06.167Z,156.30
2018-03-27T23:38:33.824Z,312.93
2018-03-27T23:41:01.438Z,43.37
2018-03-27T23:43:29.055Z,100.33
2018-03-27T23:45:56.673Z,198.60
2018-03-27T23:48:24.262Z,387.77
2018-03-27T23:50:51.918Z,222.80
2018-03-27T23:53:19.515Z,98.73
2018-03-27T23:55:47.115Z,141.30
2018-03-27T23:58:14.751Z,187.87
